Time;durP1;ratioP1;P1;durP2;ratioP2;P2;SDS_P1;SDS_P2;PMS_P1;PMS_P2;Temp;Humidity;BMP_temperature;BMP_pressure;BME280_temperature;BME280_humidity;BME280_pressure;Samples;Min_cycle;Max_cycle;Signal;HPM_P1;HPM_P2
2022/06/05 00:01:46;;;;;;;9.18;6.78;;;;;;;21.13;100.00;100285.13;5075577;28;20056;-75
2022/06/05 00:04:30;;;;;;;9.95;6.95;;;;;;;21.07;100.00;100288.47;5075662;28;20460;-75
2022/06/05 00:07:05;;;;;;;10.15;7.00;;;;;;;21.04;100.00;100282.53;5075528;28;20041;-78
2022/06/05 00:09:41;;;;;;;12.65;7.63;;;;;;;20.98;100.00;100289.44;5075541;28;20375;-75
2022/06/05 00:12:13;;;;;;;10.85;6.95;;;;;;;20.93;100.00;100294.47;5075694;28;20055;-74
2022/06/05 00:14:42;;;;;;;10.77;7.22;;;;;;;20.87;100.00;100286.97;5075407;28;20121;-75
2022/06/05 00:17:12;;;;;;;10.40;6.80;;;;;;;20.76;100.00;100289.94;5075247;28;20166;-75
2022/06/05 00:19:49;;;;;;;11.68;7.25;;;;;;;20.68;100.00;100287.16;5075410;28;20048;-75
2022/06/05 00:22:18;;;;;;;10.68;7.80;;;;;;;20.66;100.00;100289.19;5075574;28;20044;-75
2022/06/05 00:24:47;;;;;;;9.43;7.28;;;;;;;20.76;100.00;100277.25;5075343;28;20040;-75
2022/06/05 00:27:27;;;;;;;9.60;6.95;;;;;;;20.83;100.00;100280.16;5075408;28;20090;-76
2022/06/05 00:30:04;;;;;;;10.60;6.97;;;;;;;20.71;100.00;100270.56;5074198;28;20575;-76
2022/06/05 00:32:38;;;;;;;10.35;7.38;;;;;;;20.52;100.00;100260.75;5074792;28;20550;-76
2022/06/05 00:35:11;;;;;;;13.25;7.68;;;;;;;20.52;100.00;100264.31;5075338;28;20056;-76
2022/06/05 00:37:54;;;;;;;11.20;7.63;;;;;;;20.56;100.00;100254.88;5075060;28;20119;-77
2022/06/05 00:40:33;;;;;;;12.02;7.88;;;;;;;20.33;100.00;100256.31;5073295;28;20052;-77
2022/06/05 00:43:05;;;;;;;10.90;7.53;;;;;;;20.25;100.00;100267.06;5075284;28;20042;-76
2022/06/05 00:45:35;;;;;;;9.88;7.85;;;;;;;20.26;100.00;100266.06;5074992;28;20044;-76
2022/06/05 00:48:04;;;;;;;10.85;7.65;;;;;;;20.21;100.00;100271.94;5075158;28;20063;-76
2022/06/05 00:50:33;;;;;;;11.75;7.70;;;;;;;20.10;100.00;100268.63;5074720;28;20044;-77
2022/06/05 00:53:05;;;;;;;10.30;7.60;;;;;;;20.01;100.00;100263.13;5075111;28;20040;-75
2022/06/05 00:55:38;;;;;;;10.73;7.55;;;;;;;19.94;100.00;100264.72;5074771;28;20041;-79
2022/06/05 00:58:07;;;;;;;9.48;7.40;;;;;;;19.93;100.00;100259.47;5074400;28;20040;-77
2022/06/05 01:00:38;;;;;;;11.18;7.70;;;;;;;19.98;100.00;100259.88;5074273;28;20051;-74
2022/06/05 01:03:09;;;;;;;11.68;7.90;;;;;;;20.09;100.00;100261.50;5074906;28;20052;-76
2022/06/05 01:05:39;;;;;;;11.18;7.35;;;;;;;20.20;100.00;100258.56;5072990;28;20577;-76
2022/06/05 01:08:09;;;;;;;11.00;7.88;;;;;;;20.26;100.00;100260.63;5074329;28;20047;-74
2022/06/05 01:10:44;;;;;;;9.90;7.28;;;;;;;20.48;100.00;100260.22;5074511;28;20131;-76
2022/06/05 01:13:27;;;;;;;10.98;7.93;;;;;;;20.23;100.00;100255.53;5074543;28;20044;-74
2022/06/05 01:15:58;;;;;;;11.15;8.32;;;;;;;20.12;100.00;100250.34;5074053;28;20040;-79
2022/06/05 01:18:37;;;;;;;10.55;8.05;;;;;;;20.22;100.00;100251.13;5074155;28;20037;-80
2022/06/05 01:21:24;;;;;;;10.45;8.00;;;;;;;20.12;100.00;100253.06;5074419;28;20045;-75
2022/06/05 01:24:15;;;;;;;12.05;7.72;;;;;;;20.16;100.00;100257.16;5074383;28;20082;-78
2022/06/05 01:26:50;;;;;;;10.65;8.13;;;;;;;20.09;100.00;100253.38;5073935;28;20041;-78
2022/06/05 01:29:22;;;;;;;11.93;7.97;;;;;;;19.99;100.00;100256.16;5074205;28;20474;-77
2022/06/05 01:31:55;;;;;;;10.27;7.75;;;;;;;19.91;100.00;100256.06;5074150;28;20390;-77
2022/06/05 01:34:30;;;;;;;10.60;8.00;;;;;;;20.05;100.00;100258.22;5073929;28;20044;-78
2022/06/05 01:37:03;;;;;;;11.57;8.30;;;;;;;19.91;100.00;100251.50;5073783;28;20067;-78
2022/06/05 01:39:34;;;;;;;;;;;;;;;19.83;100.00;100254.09;5073863;28;20052;-77
2022/06/05 01:42:07;;;;;;;10.07;7.88;;;;;;;19.73;100.00;100253.31;5074094;28;19952;-77
2022/06/05 01:44:39;;;;;;;11.85;8.05;;;;;;;19.76;100.00;100263.81;5073773;28;20075;-77
2022/06/05 01:47:12;;;;;;;10.82;8.82;;;;;;;19.80;100.00;100259.84;5072577;28;20045;-76
2022/06/05 01:49:47;;;;;;;12.55;8.98;;;;;;;19.82;100.00;100263.22;5073473;28;20101;-75
2022/06/05 01:52:20;;;;;;;12.38;9.05;;;;;;;19.89;100.00;100264.34;5073968;28;20041;-80
2022/06/05 01:54:54;;;;;;;11.02;9.13;;;;;;;19.84;100.00;100255.81;5073359;28;20039;-80
2022/06/05 01:57:26;;;;;;;12.15;8.93;;;;;;;19.92;100.00;100247.78;5073768;28;20049;-80
2022/06/05 01:59:59;;;;;;;14.25;9.70;;;;;;;19.75;100.00;100256.72;5073847;28;20040;-77
2022/06/05 02:02:29;;;;;;;;;;;;;;;19.80;100.00;100251.72;5074140;28;20466;-77
2022/06/05 02:05:03;;;;;;;12.02;8.77;;;;;;;19.83;100.00;100254.09;5073654;28;20397;-74
2022/06/05 02:07:39;;;;;;;10.73;8.38;;;;;;;19.83;100.00;100251.41;5073251;28;20436;-76
2022/06/05 02:10:13;;;;;;;12.05;9.27;;;;;;;19.93;100.00;100254.91;5073874;28;20417;-75
2022/06/05 02:12:42;;;;;;;;;;;;;;;19.91;100.00;100251.50;5073697;28;20036;-73
2022/06/05 02:15:11;;;;;;;12.63;9.50;;;;;;;19.96;100.00;100249.16;5072363;28;19921;-79
2022/06/05 02:17:40;;;;;;;11.85;9.45;;;;;;;19.90;100.00;100246.25;5071873;28;20052;-79
2022/06/05 02:20:10;;;;;;;12.38;8.27;;;;;;;19.88;100.00;100257.22;5073000;28;20063;-79
2022/06/05 02:22:42;;;;;;;11.35;9.20;;;;;;;19.87;100.00;100255.50;5073267;28;20037;-79
2022/06/05 02:25:13;;;;;;;12.57;9.20;;;;;;;19.94;100.00;100262.00;5073561;28;20043;-78
2022/06/05 02:27:43;;;;;;;10.13;8.85;;;;;;;19.99;100.00;100256.16;5071712;28;20098;-75
2022/06/05 02:30:14;;;;;;;12.48;8.85;;;;;;;20.08;100.00;100260.66;5072929;28;20044;-76
2022/06/05 02:32:54;;;;;;;10.40;8.45;;;;;;;19.98;100.00;100263.44;5073122;28;20076;-76
2022/06/05 02:35:32;;;;;;;11.15;8.63;;;;;;;19.93;100.00;100259.47;5073232;28;20119;-76
2022/06/05 02:38:17;;;;;;;11.18;9.02;;;;;;;19.94;100.00;100258.44;5073345;28;20072;-77
2022/06/05 02:40:54;;;;;;;13.45;9.57;;;;;;;19.97;100.00;100267.09;5072999;28;20477;-76
2022/06/05 02:43:30;;;;;;;12.48;9.52;;;;;;;20.07;100.00;100261.63;5073235;28;20389;-76
2022/06/05 02:46:06;;;;;;;12.75;10.13;;;;;;;20.08;100.00;100259.81;5073089;28;20098;-76
2022/06/05 02:48:38;;;;;;;12.95;9.48;;;;;;;20.10;100.00;100258.63;5071948;28;20044;-76
2022/06/05 02:51:13;;;;;;;13.65;9.88;;;;;;;20.16;100.00;100259.88;5073144;28;20402;-77
2022/06/05 02:53:46;;;;;;;14.88;10.45;;;;;;;20.14;100.00;100267.28;5073042;28;20067;-75
2022/06/05 02:56:19;;;;;;;14.65;10.25;;;;;;;20.13;100.00;100266.44;5073149;28;20057;-78
2022/06/05 02:58:51;;;;;;;12.85;10.60;;;;;;;19.87;100.00;100252.78;5072841;28;20052;-77
2022/06/05 03:04:07;;;;;;;13.38;11.32;;;;;;;19.86;100.00;100263.78;5072690;28;20036;-78
2022/06/05 03:06:37;;;;;;;12.23;10.75;;;;;;;19.85;100.00;100260.22;5071509;28;20131;-77
2022/06/05 03:09:06;;;;;;;15.07;11.32;;;;;;;19.88;100.00;100261.75;5073023;28;20398;-78
2022/06/05 03:11:42;;;;;;;14.00;10.98;;;;;;;19.87;100.00;100269.03;5072448;28;20405;-78
2022/06/05 03:14:12;;;;;;;15.35;11.70;;;;;;;19.97;100.00;100259.00;5072980;28;20079;-77
2022/06/05 03:16:40;;;;;;;12.45;10.82;;;;;;;19.99;100.00;100259.72;5072318;28;20036;-77
2022/06/05 03:19:08;;;;;;;15.32;12.40;;;;;;;20.07;100.00;100261.63;5072878;28;20045;-77
2022/06/05 03:21:38;;;;;;;17.48;12.35;;;;;;;20.10;100.00;100264.06;5072871;28;20402;-76
2022/06/05 03:24:06;;;;;;;17.92;12.93;;;;;;;19.97;100.00;100272.53;5071588;28;20048;-76
2022/06/05 03:26:35;;;;;;;18.73;13.10;;;;;;;20.17;100.00;100272.41;5072482;28;20049;-76
2022/06/05 03:29:07;;;;;;;17.88;14.20;;;;;;;20.30;100.00;100279.16;5072841;28;20051;-76
2022/06/05 03:31:38;;;;;;;18.67;13.83;;;;;;;20.51;100.00;100281.59;5071380;28;20481;-74
2022/06/05 03:34:09;;;;;;;19.50;14.75;;;;;;;20.66;100.00;100290.03;5072530;28;20055;-74
2022/06/05 03:36:37;;;;;;;20.98;16.02;;;;;;;20.75;100.00;100289.09;5072382;28;20470;-74
2022/06/05 03:39:05;;;;;;;19.40;15.55;;;;;;;20.85;100.00;100305.25;5074197;28;20072;-75
2022/06/05 03:41:34;;;;;;;20.63;16.15;;;;;;;20.48;100.00;100303.56;5076060;28;20037;-75
2022/06/05 03:44:03;;;;;;;24.38;17.67;;;;;;;20.73;100.00;100307.34;5076088;28;20127;-76
2022/06/05 03:46:38;;;;;;;21.88;16.60;;;;;;;21.18;100.00;100311.78;5075877;28;20037;-78
2022/06/05 03:49:08;;;;;;;22.40;16.40;;;;;;;21.04;100.00;100312.34;5075079;28;20106;-75
2022/06/05 03:51:37;;;;;;;24.80;18.73;;;;;;;20.84;100.00;100314.38;5075937;28;20044;-75
2022/06/05 03:54:06;;;;;;;23.58;17.67;;;;;;;20.87;100.00;100314.09;5076052;28;20049;-75
2022/06/05 03:56:34;;;;;;;26.10;18.80;;;;;;;20.89;100.00;100322.91;5074451;28;20044;-74
2022/06/05 03:59:03;;;;;;;29.95;20.27;;;;;;;20.70;100.00;100333.91;5076087;28;20124;-74
2022/06/05 04:01:32;;;;;;;30.33;21.55;;;;;;;20.72;100.00;100332.75;5074952;28;20169;-76
2022/06/05 04:04:03;;;;;;;32.00;21.88;;;;;;;21.18;100.00;100338.03;5074904;28;20049;-75
2022/06/05 04:06:35;;;;;;;30.45;22.02;;;;;;;22.45;100.00;100330.88;5075795;28;20176;-76
2022/06/05 04:09:08;;;;;;;27.90;20.23;;;;;;;23.02;100.00;100331.81;5075681;28;20055;-76
2022/06/05 04:11:39;;;;;;;27.77;19.58;;;;;;;23.11;100.00;100346.25;5075647;28;20041;-75
2022/06/05 04:14:08;;;;;;;26.73;18.35;;;;;;;22.86;100.00;100342.69;5075762;28;20098;-75
2022/06/05 04:16:40;;;;;;;24.80;17.88;;;;;;;22.15;100.00;100344.06;5074004;28;20056;-75
2022/06/05 04:19:09;;;;;;;26.92;18.88;;;;;;;21.56;100.00;100353.94;5074793;28;20064;-73
2022/06/05 04:21:43;;;;;;;26.77;18.40;;;;;;;21.47;100.00;100354.91;5073896;28;20053;-74
2022/06/05 04:24:12;;;;;;;26.48;18.38;;;;;;;21.43;100.00;100364.38;5075555;28;20052;-73
2022/06/05 04:26:42;;;;;;;25.23;17.83;;;;;;;21.55;100.00;100357.66;5074865;28;20507;-76
2022/06/05 04:29:11;;;;;;;24.30;17.02;;;;;;;21.21;100.00;100362.13;5073964;28;20052;-77
2022/06/05 04:31:44;;;;;;;23.17;16.23;;;;;;;21.03;100.00;100363.00;5075164;28;20045;-75
2022/06/05 04:34:15;;;;;;;22.25;16.13;;;;;;;20.98;100.00;100359.94;5074959;28;20115;-75
2022/06/05 04:36:45;;;;;;;22.92;15.48;;;;;;;21.14;100.00;100365.50;5075302;28;20040;-75
2022/06/05 04:39:14;;;;;;;20.33;14.93;;;;;;;21.30;100.00;100362.06;5074452;28;20087;-75
2022/06/05 04:41:43;;;;;;;20.73;14.75;;;;;;;21.33;100.00;100369.06;5074887;28;20070;-76
2022/06/05 04:44:14;;;;;;;19.05;13.82;;;;;;;21.32;100.00;100370.03;5075151;28;20045;-75
2022/06/05 04:46:42;;;;;;;21.67;14.93;;;;;;;21.51;100.00;100367.13;5074967;28;20044;-76
2022/06/05 04:49:10;;;;;;;17.98;12.07;;;;;;;21.57;100.00;100362.91;5074884;28;20131;-76
2022/06/05 04:51:39;;;;;;;18.73;12.50;;;;;;;21.77;100.00;100363.53;5073496;28;20059;-76
2022/06/05 04:54:11;;;;;;;16.88;12.02;;;;;;;21.86;100.00;100376.16;5074745;28;20045;-75
2022/06/05 04:56:41;;;;;;;18.85;13.15;;;;;;;21.65;100.00;100380.13;5073659;28;20049;-80
2022/06/05 04:59:11;;;;;;;19.52;12.45;;;;;;;21.72;100.00;100385.75;5074048;28;20056;-79
2022/06/05 05:01:39;;;;;;;17.30;12.48;;;;;;;21.76;100.00;100386.28;5075350;28;20054;-76
2022/06/05 05:04:13;;;;;;;15.80;11.93;;;;;;;21.78;100.00;100389.69;5074814;28;20398;-75
2022/06/05 05:06:43;;;;;;;19.58;12.32;;;;;;;21.56;100.00;100386.50;5074545;28;20041;-75
2022/06/05 05:09:13;;;;;;;14.82;9.90;;;;;;;21.57;100.00;100395.50;5074411;28;20127;-74
2022/06/05 05:11:41;;;;;;;14.95;10.45;;;;;;;21.52;100.00;100403.25;5074921;28;20128;-75
2022/06/05 05:14:11;;;;;;;12.90;9.52;;;;;;;21.24;100.00;100419.66;5074464;28;20045;-74
2022/06/05 05:16:40;;;;;;;12.75;8.80;;;;;;;21.34;100.00;100414.16;5074073;28;20075;-76
2022/06/05 05:19:09;;;;;;;13.02;8.52;;;;;;;21.33;100.00;100421.44;5074394;28;20044;-75
2022/06/05 05:21:38;;;;;;;13.43;9.45;;;;;;;21.33;100.00;100423.31;5073834;28;20048;-76
2022/06/05 05:24:07;;;;;;;11.27;8.95;;;;;;;21.50;100.00;100422.41;5073943;28;20041;-75
2022/06/05 05:26:37;;;;;;;12.38;8.93;;;;;;;21.39;100.00;100428.09;5074295;28;20500;-74
2022/06/05 05:29:06;;;;;;;10.20;8.07;;;;;;;21.23;100.00;100430.63;5074158;28;20036;-74
2022/06/05 05:31:37;;;;;;;12.73;8.18;;;;;;;21.19;100.00;100424.69;5074306;28;20090;-75
2022/06/05 05:34:05;;;;;;;10.45;7.50;;;;;;;21.06;100.00;100427.78;5074566;28;20041;-75
2022/06/05 05:36:34;;;;;;;11.98;7.85;;;;;;;21.03;100.00;100438.06;5072861;28;20055;-75
2022/06/05 05:42:09;;;;;;;11.73;7.97;;;;;;;21.02;100.00;100433.66;5073445;28;20486;-76
2022/06/05 05:44:40;;;;;;;10.07;7.90;;;;;;;21.11;100.00;100436.31;5074056;28;20123;-76
2022/06/05 05:47:12;;;;;;;10.05;8.07;;;;;;;21.23;100.00;100439.66;5073763;28;20064;-76
2022/06/05 05:49:41;;;;;;;12.27;9.18;;;;;;;21.23;100.00;100434.22;5072375;28;20048;-77
2022/06/05 05:52:10;;;;;;;11.20;8.93;;;;;;;21.22;100.00;100431.63;5073792;28;20401;-76
2022/06/05 05:54:39;;;;;;;12.18;8.75;;;;;;;21.64;100.00;100424.56;5073575;28;20049;-79
2022/06/05 05:57:09;;;;;;;13.85;8.65;;;;;;;21.91;100.00;100420.81;5073571;28;20053;-77
2022/06/05 05:59:38;;;;;;;11.45;8.55;;;;;;;22.14;100.00;100423.84;5073881;28;20064;-77
2022/06/05 06:02:11;;;;;;;9.93;7.78;;;;;;;22.93;100.00;100419.88;5073359;28;20059;-77
2022/06/05 06:04:39;;;;;;;;;;;;;;;23.14;100.00;100408.50;5073566;28;20056;-78
2022/06/05 06:07:08;;;;;;;10.48;8.45;;;;;;;24.02;100.00;100421.31;5073626;28;20018;-76
2022/06/05 06:09:37;;;;;;;11.52;8.00;;;;;;;24.44;100.00;100424.63;5073190;28;20055;-76
2022/06/05 06:12:06;;;;;;;19.27;8.77;;;;;;;25.37;100.00;100420.94;5073634;28;20048;-76
2022/06/05 06:14:36;;;;;;;17.30;8.43;;;;;;;25.91;100.00;100420.78;5073827;28;20040;-76
2022/06/05 06:17:05;;;;;;;26.13;9.48;;;;;;;26.00;100.00;100418.81;5073715;28;20107;-75
2022/06/05 06:19:34;;;;;;;9.43;8.05;;;;;;;26.54;100.00;100408.44;5073604;28;20051;-76
2022/06/05 06:22:02;;;;;;;13.18;8.13;;;;;;;26.55;100.00;100401.06;5072899;28;20489;-76
2022/06/05 06:24:31;;;;;;;59.70;10.35;;;;;;;26.63;100.00;100401.75;5073411;28;20203;-76
2022/06/05 06:26:59;;;;;;;44.90;9.32;;;;;;;27.44;100.00;100399.66;5073139;28;20119;-74
2022/06/05 06:29:28;;;;;;;10.40;7.03;;;;;;;27.96;100.00;100401.09;5072986;28;20036;-74
2022/06/05 06:31:57;;;;;;;9.90;7.65;;;;;;;27.99;100.00;100389.75;5073062;28;20079;-74
2022/06/05 06:34:26;;;;;;;9.43;7.30;;;;;;;28.01;100.00;100389.56;5072899;28;20496;-75
2022/06/05 06:36:54;;;;;;;8.90;7.32;;;;;;;28.58;100.00;100394.69;5071609;28;20044;-75
2022/06/05 06:39:22;;;;;;;17.02;6.95;;;;;;;28.58;100.00;100391.09;5073258;28;20045;-75
2022/06/05 06:41:51;;;;;;;9.23;7.13;;;;;;;28.35;100.00;100395.00;5073039;28;20406;-74
2022/06/05 06:44:19;;;;;;;7.57;6.65;;;;;;;28.02;100.00;100396.72;5073161;28;20044;-74
2022/06/05 06:46:48;;;;;;;9.15;7.43;;;;;;;27.96;100.00;100395.63;5072504;28;20052;-74
2022/06/05 06:49:17;;;;;;;8.70;6.53;;;;;;;28.37;100.00;100390.16;5073211;28;20044;-74
2022/06/05 06:51:46;;;;;;;10.55;6.65;;;;;;;28.58;100.00;100385.63;5072876;28;20056;-74
2022/06/05 06:54:14;;;;;;;10.13;7.00;;;;;;;28.67;100.00;100378.88;5073009;28;20478;-76
2022/06/05 06:56:44;;;;;;;8.65;7.07;;;;;;;28.35;100.00;100378.56;5071507;28;20044;-78
2022/06/05 06:59:12;;;;;;;8.02;7.05;;;;;;;27.37;100.00;100369.47;5072967;28;20044;-75
2022/06/05 07:01:40;;;;;;;8.73;7.05;;;;;;;26.46;100.00;100371.09;5071289;28;20091;-75
2022/06/05 07:04:09;;;;;;;11.63;7.00;;;;;;;26.42;100.00;100369.75;5072845;28;20095;-75
2022/06/05 07:06:39;;;;;;;9.80;7.22;;;;;;;26.38;100.00;100362.16;5071845;28;20102;-75
2022/06/05 07:09:07;;;;;;;9.85;7.38;;;;;;;26.48;100.00;100373.63;5072247;28;20096;-76
2022/06/05 07:11:35;;;;;;;10.18;7.07;;;;;;;26.69;100.00;100364.59;5071697;28;20405;-76
2022/06/05 07:14:06;;;;;;;8.48;6.60;;;;;;;26.72;100.00;100362.31;5074112;28;20106;-76
2022/06/05 07:16:34;;;;;;;8.45;6.35;;;;;;;27.06;100.00;100360.78;5076905;28;20473;-76
2022/06/05 07:19:03;;;;;;;8.10;6.10;;;;;;;26.74;100.00;100371.19;5076158;28;20044;-75
2022/06/05 07:21:31;;;;;;;10.68;6.28;;;;;;;26.45;100.00;100374.88;5075561;28;20105;-75
2022/06/05 07:24:01;;;;;;;7.20;5.60;;;;;;;26.11;100.00;100386.38;5076104;28;20425;-74
2022/06/05 07:26:32;;;;;;;8.50;5.93;;;;;;;25.74;100.00;100387.31;5076573;28;20044;-74
2022/06/05 07:29:02;;;;;;;6.90;6.03;;;;;;;25.49;100.00;100381.25;5075167;28;20102;-78
2022/06/05 07:31:31;;;;;;;9.02;6.25;;;;;;;25.45;100.00;100382.63;5076260;28;20051;-82
2022/06/05 07:34:01;;;;;;;9.45;6.57;;;;;;;25.06;100.00;100382.81;5076216;28;20071;-75
2022/06/05 07:36:30;;;;;;;8.07;6.20;;;;;;;25.15;100.00;100387.16;5076227;28;20592;-84
2022/06/05 07:38:59;;;;;;;8.63;6.45;;;;;;;25.50;100.00;100380.22;5076208;28;20049;-84
2022/06/05 07:41:31;;;;;;;10.85;6.03;;;;;;;25.62;100.00;100386.06;5076459;28;20052;-73
2022/06/05 07:44:01;;;;;;;11.50;6.10;;;;;;;25.95;100.00;100387.41;5077200;28;20043;-77
2022/06/05 07:46:30;;;;;;;13.38;6.30;;;;;;;25.86;100.00;100387.69;5080974;28;20472;-76
2022/06/05 07:48:59;;;;;;;8.73;6.05;;;;;;;25.46;100.00;100388.94;5074653;28;20044;-79
2022/06/05 07:54:30;;;;;;;9.27;5.72;;;;;;;24.94;100.00;100387.81;5075125;28;20094;-80
2022/06/05 07:57:04;;;;;;;7.43;5.63;;;;;;;25.05;100.00;100398.34;5075898;28;20394;-77
2022/06/05 07:59:37;;;;;;;6.43;5.60;;;;;;;25.13;100.00;100396.59;5075857;28;20054;-79
2022/06/05 08:02:06;;;;;;;;;;;;;;;25.43;100.00;100406.56;5076124;28;20067;-79
2022/06/05 08:04:36;;;;;;;7.88;5.15;;;;;;;25.75;100.00;100404.56;5075394;28;20019;-82
2022/06/05 08:07:06;;;;;;;8.13;5.80;;;;;;;26.00;100.00;100407.88;5074348;28;20451;-82
2022/06/05 08:09:36;;;;;;;7.40;5.53;;;;;;;25.65;100.00;100408.38;5075857;28;20052;-81
2022/06/05 08:12:07;;;;;;;8.50;5.70;;;;;;;25.35;100.00;100409.34;5075525;28;20535;-79
2022/06/05 08:14:37;;;;;;;7.28;6.20;;;;;;;25.42;100.00;100414.94;5074848;28;20045;-83
2022/06/05 08:17:07;;;;;;;9.98;6.60;;;;;;;25.57;100.00;100413.91;5075423;28;20470;-78
2022/06/05 08:19:38;;;;;;;8.30;6.57;;;;;;;24.94;100.00;100403.34;5075668;28;20074;-78
2022/06/05 08:22:07;;;;;;;7.97;6.95;;;;;;;25.17;100.00;100408.81;5074087;28;20051;-79
2022/06/05 08:24:35;;;;;;;7.95;6.70;;;;;;;25.10;100.00;100406.00;5075351;28;20040;-76
2022/06/05 08:27:11;;;;;;;9.68;7.07;;;;;;;25.60;100.00;100408.09;5075089;28;20040;-79
2022/06/05 08:29:41;;;;;;;9.02;6.95;;;;;;;25.74;100.00;100408.31;5075179;28;20090;-77
2022/06/05 08:32:09;;;;;;;8.90;7.10;;;;;;;25.83;100.00;100412.66;5073846;28;20052;-79
2022/06/05 08:34:38;;;;;;;9.35;7.28;;;;;;;26.03;100.00;100413.81;5075180;28;20048;-79
2022/06/05 08:42:58;;;;;;;9.02;7.28;;;;;;;25.61;100.00;100420.72;5075051;28;20045;-76
2022/06/05 08:45:37;;;;;;;9.38;7.10;;;;;;;25.47;100.00;100421.53;5074101;28;20442;-77
2022/06/05 08:48:11;;;;;;;8.45;7.18;;;;;;;25.19;100.00;100420.41;5074690;28;20045;-79
2022/06/05 08:50:45;;;;;;;8.05;7.18;;;;;;;24.99;100.00;100426.31;5075128;28;20102;-80
2022/06/05 08:53:21;;;;;;;9.35;7.30;;;;;;;25.07;100.00;100407.19;5074373;28;20040;-80
2022/06/05 08:55:53;;;;;;;10.70;6.82;;;;;;;25.48;100.00;100409.59;5073952;28;20110;-81
2022/06/05 08:58:27;;;;;;;11.65;7.07;;;;;;;25.78;100.00;100415.13;5074565;28;20048;-81
2022/06/05 09:01:00;;;;;;;7.45;6.65;;;;;;;25.44;100.00;100412.84;5074526;28;20052;-80
2022/06/05 09:03:33;;;;;;;9.20;6.90;;;;;;;25.87;100.00;100420.31;5075000;28;20398;-81
2022/06/05 09:06:06;;;;;;;9.02;6.90;;;;;;;26.09;100.00;100418.53;5073220;28;20055;-81
2022/06/05 09:08:38;;;;;;;9.40;7.07;;;;;;;26.10;100.00;100409.28;5074424;28;20045;-75
2022/06/05 09:11:11;;;;;;;8.18;7.10;;;;;;;25.72;100.00;100407.66;5073924;28;20041;-78
2022/06/05 09:13:49;;;;;;;9.52;7.97;;;;;;;26.28;100.00;100408.06;5072980;28;20053;-78
2022/06/05 09:16:23;;;;;;;10.93;8.15;;;;;;;25.90;100.00;100417.19;5074558;28;20044;-77
2022/06/05 09:18:52;;;;;;;10.20;7.75;;;;;;;25.89;100.00;100417.41;5074284;28;20041;-77
2022/06/05 09:21:25;;;;;;;10.40;7.97;;;;;;;26.09;100.00;100395.81;5072895;28;20044;-78
2022/06/05 09:24:06;;;;;;;10.68;7.38;;;;;;;25.19;100.00;100409.47;5073519;28;20504;-81
2022/06/05 09:26:42;;;;;;;10.10;7.88;;;;;;;25.69;100.00;100408.88;5072879;28;20052;-77
2022/06/05 09:29:30;;;;;;;10.45;7.25;;;;;;;25.79;100.00;100419.56;5073773;28;20074;-75
2022/06/05 09:32:25;;;;;;;8.50;6.78;;;;;;;25.92;100.00;100417.00;5073327;28;20106;-76
2022/06/05 09:34:58;;;;;;;7.28;6.22;;;;;;;25.71;100.00;100415.03;5073462;28;20044;-79
2022/06/05 09:37:31;;;;;;;8.68;6.97;;;;;;;26.12;100.00;100420.88;5073584;28;20110;-78
2022/06/05 09:40:02;;;;;;;8.68;6.82;;;;;;;26.18;100.00;100422.84;5078513;28;20106;-81
2022/06/05 09:42:58;;;;;;;8.30;6.60;;;;;;;25.45;100.00;100437.25;5073687;28;20553;-80
2022/06/05 09:45:44;;;;;;;9.30;6.38;;;;;;;25.17;100.00;100428.78;5068313;28;20478;-77
2022/06/05 09:48:26;;;;;;;6.72;5.50;;;;;;;24.91;100.00;100431.00;5065832;28;20076;-80
2022/06/05 09:51:07;;;;;;;6.22;5.10;;;;;;;25.05;100.00;100425.63;5053573;28;20053;-79
2022/06/05 09:53:43;;;;;;;7.78;4.43;;;;;;;25.04;100.00;100418.47;5052075;28;20037;-78
2022/06/05 09:56:23;;;;;;;9.48;5.00;;;;;;;25.29;100.00;100432.78;5050759;28;20072;-79
2022/06/05 09:59:06;;;;;;;5.88;4.60;;;;;;;25.37;100.00;100435.44;5051207;28;20045;-80
2022/06/05 10:01:50;;;;;;;5.70;4.20;;;;;;;25.39;100.00;100438.00;5051851;28;20053;-78
2022/06/05 10:04:21;;;;;;;7.80;4.70;;;;;;;25.60;97.34;100429.94;5050998;28;20055;-81
2022/06/05 10:06:56;;;;;;;6.28;4.10;;;;;;;25.65;92.62;100443.03;5052122;28;20443;-83
2022/06/05 10:09:28;;;;;;;5.40;4.07;;;;;;;25.81;91.65;100442.91;5052019;28;20055;-85
2022/06/05 10:12:01;;;;;;;5.78;4.38;;;;;;;26.09;87.96;100429.47;5053535;28;20099;-81
2022/06/05 10:14:41;;;;;;;5.43;4.10;;;;;;;26.49;82.49;100440.97;5070543;28;20048;-83
2022/06/05 10:17:26;;;;;;;5.35;3.85;;;;;;;26.40;71.77;100442.09;5072227;28;20094;-82
2022/06/05 10:20:18;;;;;;;5.57;3.90;;;;;;;26.53;65.68;100439.53;5072190;28;20050;-78
2022/06/05 10:22:53;;;;;;;4.85;3.85;;;;;;;26.86;59.41;100436.34;5072358;28;20086;-85
2022/06/05 10:25:33;;;;;;;5.50;4.07;;;;;;;26.93;52.75;100440.03;5071610;28;20489;-80
2022/06/05 10:28:10;;;;;;;6.47;3.80;;;;;;;26.91;50.54;100433.88;5071318;28;20067;-83
2022/06/05 10:30:45;;;;;;;4.78;3.92;;;;;;;26.62;52.63;100421.97;5070548;28;20053;-78
2022/06/05 10:33:25;;;;;;;6.85;3.90;;;;;;;26.31;53.18;100415.88;5072142;28;20036;-81
2022/06/05 10:36:01;;;;;;;4.97;4.05;;;;;;;26.60;52.28;100413.09;5071903;28;20444;-81
2022/06/05 10:38:37;;;;;;;6.82;4.05;;;;;;;26.52;51.55;100413.22;5070586;28;20110;-84
2022/06/05 10:41:18;;;;;;;4.80;3.75;;;;;;;26.48;52.23;100417.38;5072099;28;20505;-80
2022/06/05 10:44:10;;;;;;;5.25;3.85;;;;;;;26.82;50.23;100420.28;5072118;28;20044;-81
2022/06/05 10:46:46;;;;;;;6.88;4.20;;;;;;;26.85;50.84;100412.75;5071330;28;20041;-74
2022/06/05 10:49:25;;;;;;;4.93;3.80;;;;;;;26.63;50.67;100406.41;5073511;28;20051;-83
2022/06/05 10:52:03;;;;;;;6.07;3.85;;;;;;;26.34;52.12;100405.38;5075785;28;20041;-79
2022/06/05 10:54:40;;;;;;;6.60;3.70;;;;;;;26.37;51.72;100409.66;5075535;28;20041;-84
2022/06/05 10:57:18;;;;;;;6.40;4.18;;;;;;;26.16;53.21;100403.06;5079004;28;20127;-76
2022/06/05 10:59:55;;;;;;;6.80;4.28;;;;;;;26.28;53.04;100394.38;5075750;28;20041;-83
2022/06/05 11:02:44;;;;;;;5.10;4.53;;;;;;;25.49;55.43;100397.63;5074028;28;20139;-80
2022/06/05 11:05:28;;;;;;;6.72;4.78;;;;;;;25.76;55.34;100392.59;5075716;28;20048;-75
2022/06/05 11:08:17;;;;;;;5.75;4.32;;;;;;;25.63;54.90;100385.88;5075601;28;20040;-76
2022/06/05 11:13:51;;;;;;;8.50;4.40;;;;;;;25.55;54.64;100379.63;5075642;28;20071;-78
2022/06/05 11:16:49;;;;;;;8.23;5.68;;;;;;;25.82;55.19;100384.50;5075360;28;20037;-77
2022/06/05 11:19:27;;;;;;;7.22;4.47;;;;;;;25.47;55.75;100386.03;5076057;28;20048;-78
2022/06/05 11:22:01;;;;;;;5.65;4.65;;;;;;;25.66;55.91;100376.44;5068685;28;20127;-91
2022/06/05 11:24:33;;;;;;;5.43;4.40;;;;;;;25.46;55.74;100376.13;5056010;28;20065;-79
2022/06/05 11:27:08;;;;;;;6.13;4.60;;;;;;;25.08;56.29;100387.03;5055411;28;20124;-81
2022/06/05 11:29:48;;;;;;;6.65;4.65;;;;;;;25.34;56.82;100375.75;5053719;28;20102;-74
2022/06/05 11:32:25;;;;;;;8.93;5.10;;;;;;;25.14;56.22;100380.03;5055154;28;20040;-77
2022/06/05 11:35:00;;;;;;;7.18;4.78;;;;;;;25.41;56.68;100364.94;5054538;28;20498;-77
2022/06/05 11:37:44;;;;;;;5.97;5.07;;;;;;;25.54;55.82;100370.59;5055208;28;20080;-74
2022/06/05 11:40:25;;;;;;;7.28;5.20;;;;;;;25.51;54.90;100368.25;5055049;28;20045;-72
2022/06/05 11:43:10;;;;;;;5.18;4.63;;;;;;;25.17;54.77;100359.69;5054761;28;20128;-72
2022/06/05 11:45:48;;;;;;;5.47;4.63;;;;;;;25.26;55.53;100369.50;5065974;28;20063;-73
2022/06/05 11:48:24;;;;;;;6.43;4.93;;;;;;;25.57;55.43;100363.91;5075047;28;20098;-72
2022/06/05 11:51:05;;;;;;;7.65;4.88;;;;;;;25.39;53.87;100356.94;5074352;28;20094;-75
2022/06/05 11:53:42;;;;;;;6.85;4.93;;;;;;;25.43;54.30;100357.41;5074796;28;20041;-74
2022/06/05 11:56:27;;;;;;;8.38;4.80;;;;;;;25.54;53.51;100348.75;5074514;28;20072;-79
2022/06/05 11:59:05;;;;;;;7.00;4.40;;;;;;;25.60;52.97;100352.63;5074204;28;20115;-78